Time;durP1;ratioP1;P1;durP2;ratioP2;P2;SDS_P1;SDS_P2;PMS_P1;PMS_P2;Temp;Humidity;BMP_temperature;BMP_pressure;BME280_temperature;BME280_humidity;BME280_pressure;Samples;Min_cycle;Max_cycle;Signal;HPM_P1;HPM_P2
2022/05/08 00:02:27;;;;;;;7.40;2.67;;;;;;;11.53;39.57;100984.36;1738611;82;21040;-71
2022/05/08 00:04:54;;;;;;;5.92;2.75;;;;;;;11.52;39.45;100983.16;1738000;82;21840;-71
2022/05/08 00:07:21;;;;;;;7.47;2.50;;;;;;;11.50;39.42;100981.95;1738854;81;20999;-71
2022/05/08 00:09:48;;;;;;;6.17;2.40;;;;;;;11.50;39.53;100980.63;1742551;81;21074;-71
2022/05/08 00:12:16;;;;;;;8.60;2.70;;;;;;;11.50;39.35;100982.43;1753600;81;21465;-71
2022/05/08 00:14:45;;;;;;;13.75;2.92;;;;;;;11.49;39.48;100984.71;1753455;80;21118;-71
2022/05/08 00:17:13;;;;;;;11.18;3.95;;;;;;;11.49;39.41;100978.09;1749758;81;21832;-70
2022/05/08 00:19:43;;;;;;;8.73;3.27;;;;;;;11.49;39.48;100975.45;1751321;80;20998;-70
2022/05/08 00:22:12;;;;;;;8.15;2.65;;;;;;;11.48;39.67;100974.58;1753793;80;21051;-71
2022/05/08 00:24:39;;;;;;;8.53;3.00;;;;;;;11.47;39.74;100985.64;1753715;81;21003;-71
2022/05/08 00:27:06;;;;;;;9.63;3.50;;;;;;;11.47;39.64;100979.50;1751813;81;21058;-71
2022/05/08 00:29:34;;;;;;;6.70;2.85;;;;;;;11.45;39.78;100978.78;1753836;81;21836;-71
2022/05/08 00:32:02;;;;;;;4.95;2.65;;;;;;;11.43;39.93;100976.25;1753680;80;20951;-71
2022/05/08 00:34:31;;;;;;;7.47;2.60;;;;;;;11.42;39.85;100978.53;1753544;80;20995;-71
2022/05/08 00:37:00;;;;;;;5.17;2.20;;;;;;;11.42;39.85;100981.19;1738510;82;21002;-71
2022/05/08 00:39:28;;;;;;;8.45;2.50;;;;;;;11.41;39.88;100983.47;1738571;82;21026;-70
2022/05/08 00:41:56;;;;;;;7.58;2.52;;;;;;;11.40;39.93;100974.33;1737453;81;21850;-70
2022/05/08 00:44:23;;;;;;;5.37;2.15;;;;;;;11.37;40.24;100980.66;1736519;81;20959;-70
2022/05/08 00:46:50;;;;;;;5.58;2.65;;;;;;;11.34;40.33;100980.05;1736048;81;21077;-72
2022/05/08 00:49:17;;;;;;;7.47;3.00;;;;;;;11.30;40.38;100976.80;1738541;81;21019;-71
2022/05/08 00:51:47;;;;;;;9.80;2.90;;;;;;;11.27;40.63;100976.16;1736486;81;21056;-71
2022/05/08 00:54:15;;;;;;;9.83;2.55;;;;;;;11.24;40.66;100981.67;1737897;82;22725;-71
2022/05/08 00:56:42;;;;;;;7.45;2.90;;;;;;;11.20;40.77;100977.09;1760124;80;21399;-71
2022/05/08 00:59:10;;;;;;;8.58;2.98;;;;;;;11.15;41.02;100977.41;1721632;82;21058;-72
2022/05/08 01:01:37;;;;;;;8.68;4.17;;;;;;;11.12;41.08;100970.19;1719125;82;22165;-73
2022/05/08 01:04:04;;;;;;;9.20;3.02;;;;;;;11.08;41.29;100966.91;1752876;81;21006;-72
2022/05/08 01:06:32;;;;;;;12.35;3.20;;;;;;;11.04;41.37;100961.97;1753074;81;21833;-73
2022/05/08 01:09:01;;;;;;;5.17;2.58;;;;;;;11.01;41.43;100959.55;1754209;80;20944;-73
2022/05/08 01:11:28;;;;;;;10.00;2.47;;;;;;;10.97;41.62;100960.70;1751841;81;21039;-73
2022/05/08 01:13:55;;;;;;;8.83;2.52;;;;;;;10.95;41.66;100956.02;1751959;80;21427;-72
2022/05/08 01:16:22;;;;;;;7.42;2.47;;;;;;;10.94;41.93;100956.97;1753836;80;20984;-74
2022/05/08 01:18:49;;;;;;;6.15;2.62;;;;;;;10.93;41.80;100952.16;1753925;80;21948;-75
2022/05/08 01:21:28;;;;;;;6.87;2.37;;;;;;;10.92;41.79;100954.92;1728703;81;21078;-73
2022/05/08 01:23:56;;;;;;;14.63;2.70;;;;;;;10.92;41.81;100953.60;1750939;80;20964;-73
2022/05/08 01:26:24;;;;;;;9.33;2.77;;;;;;;10.89;41.88;100946.23;1754262;81;21535;-73
2022/05/08 01:28:52;;;;;;;7.10;2.58;;;;;;;10.88;42.06;100946.35;1754503;80;21006;-72
2022/05/08 01:31:21;;;;;;;8.05;2.70;;;;;;;10.87;42.07;100952.59;1753976;80;21848;-73
2022/05/08 01:33:48;;;;;;;5.10;2.75;;;;;;;10.85;42.09;100950.06;1752694;80;21489;-73
2022/05/08 01:36:15;;;;;;;8.63;2.65;;;;;;;10.82;42.24;100950.30;1754306;80;21074;-72
2022/05/08 01:38:42;;;;;;;5.60;2.83;;;;;;;10.80;42.42;100947.37;1754446;81;21357;-73
2022/05/08 01:41:10;;;;;;;8.45;3.00;;;;;;;10.77;42.45;100948.44;1753790;80;20991;-73
2022/05/08 01:43:37;;;;;;;7.30;2.80;;;;;;;10.76;42.49;100948.08;1743313;80;21832;-72
2022/05/08 01:46:05;;;;;;;6.20;3.05;;;;;;;10.75;42.47;100949.03;1741659;81;20982;-71
2022/05/08 01:48:35;;;;;;;7.50;2.90;;;;;;;10.75;42.51;100949.03;1753753;81;20991;-72
2022/05/08 01:51:03;;;;;;;8.60;3.05;;;;;;;10.75;42.51;100951.67;1753982;80;20939;-73
2022/05/08 01:53:34;;;;;;;9.83;3.40;;;;;;;10.77;42.59;100946.27;1750534;80;20986;-73
2022/05/08 01:56:05;;;;;;;6.33;3.02;;;;;;;10.75;42.71;100946.87;1753361;81;21899;-72
2022/05/08 01:58:32;;;;;;;9.28;3.40;;;;;;;10.74;42.58;100948.67;1753477;80;20974;-72
2022/05/08 02:01:01;;;;;;;6.75;3.10;;;;;;;10.76;42.51;100959.13;1754135;80;20998;-72
2022/05/08 02:03:28;;;;;;;5.62;3.02;;;;;;;10.77;42.42;100960.33;1751662;81;21072;-72
2022/05/08 02:05:56;;;;;;;7.72;3.02;;;;;;;10.77;42.57;100954.20;1753903;80;20955;-71
2022/05/08 02:08:24;;;;;;;9.23;2.80;;;;;;;10.78;42.65;100955.89;1753770;80;22925;-72
2022/05/08 02:10:52;;;;;;;7.75;3.10;;;;;;;10.80;42.66;100952.66;1753906;81;20940;-72
2022/05/08 02:13:19;;;;;;;8.63;3.12;;;;;;;10.78;42.89;100953.25;1751796;80;21117;-72
2022/05/08 02:15:48;;;;;;;7.03;2.80;;;;;;;10.75;42.92;100952.16;1749966;82;22447;-72
2022/05/08 02:18:15;;;;;;;8.03;2.80;;;;;;;10.71;42.83;100954.18;1751182;82;20952;-72
2022/05/08 02:20:44;;;;;;;6.60;2.30;;;;;;;10.68;43.07;100951.73;1743760;82;21410;-72
2022/05/08 02:23:11;;;;;;;5.87;2.52;;;;;;;10.64;43.07;100959.52;1750255;80;21054;-72
2022/05/08 02:25:39;;;;;;;7.30;2.98;;;;;;;10.62;43.01;100957.47;1752355;80;20982;-72
2022/05/08 02:28:06;;;;;;;4.37;2.40;;;;;;;10.61;42.94;100962.35;1750583;82;20944;-72
2022/05/08 02:30:33;;;;;;;8.45;2.80;;;;;;;10.60;43.03;100960.19;1739270;82;20943;-72
2022/05/08 02:33:02;;;;;;;6.95;2.83;;;;;;;10.61;42.98;100959.71;1750038;80;22002;-71
2022/05/08 02:35:29;;;;;;;8.28;3.02;;;;;;;10.62;42.81;100964.55;1749868;80;21003;-72
2022/05/08 02:37:57;;;;;;;6.78;2.90;;;;;;;10.61;42.93;100961.03;1751064;82;21461;-72
2022/05/08 02:40:24;;;;;;;7.28;3.10;;;;;;;10.62;43.12;100962.75;1748537;82;21054;-72
2022/05/08 02:42:52;;;;;;;7.80;3.00;;;;;;;10.63;43.03;100964.44;1750698;82;21074;-72
2022/05/08 02:45:19;;;;;;;8.53;2.70;;;;;;;10.64;42.98;100967.44;1750930;82;21837;-73
2022/05/08 02:47:46;;;;;;;6.45;2.52;;;;;;;10.64;43.04;100963.96;1730346;82;20980;-72
2022/05/08 02:50:13;;;;;;;8.70;2.50;;;;;;;10.63;42.83;100962.27;1691848;82;21018;-72
2022/05/08 02:52:42;;;;;;;8.80;2.58;;;;;;;10.60;42.73;100962.83;1735156;81;21014;-73
2022/05/08 03:00:45;;;;;;;7.60;2.55;;;;;;;10.57;42.62;100968.34;1738280;81;20893;-72
2022/05/08 03:03:13;;;;;;;4.70;2.50;;;;;;;10.56;42.66;100964.02;1737896;81;20985;-73
2022/05/08 03:05:43;;;;;;;9.10;2.80;;;;;;;10.57;42.81;100967.50;1686493;82;21073;-72
2022/05/08 03:08:11;;;;;;;5.58;2.60;;;;;;;10.57;42.65;100974.94;1738329;81;21015;-72
2022/05/08 03:13:23;;;;;;;7.83;2.60;;;;;;;10.57;42.35;100975.42;1737378;81;21427;-72
2022/05/08 03:15:53;;;;;;;5.50;2.12;;;;;;;10.56;42.44;100976.37;1737377;82;20992;-72
2022/05/08 03:18:20;;;;;;;5.42;2.45;;;;;;;10.55;42.53;100977.33;1737427;81;21138;-72
2022/05/08 03:20:47;;;;;;;6.33;2.67;;;;;;;10.55;42.51;100981.30;1737108;82;21107;-72
2022/05/08 03:23:14;;;;;;;4.67;2.15;;;;;;;10.55;42.72;100979.97;1737202;81;21908;-72
2022/05/08 03:25:42;;;;;;;5.40;2.58;;;;;;;10.57;42.45;100980.70;1737509;82;20996;-72
2022/05/08 03:28:15;;;;;;;6.33;2.37;;;;;;;10.56;42.46;100977.70;1735919;82;21068;-72
2022/05/08 03:30:40;;;;;;;7.33;2.22;;;;;;;10.56;42.46;100979.02;1724547;82;21043;-72
2022/05/08 03:33:15;;;;;;;7.50;2.22;;;;;;;10.56;42.51;100981.18;1698432;80;21040;-71
2022/05/08 03:35:43;;;;;;;5.20;2.20;;;;;;;10.59;42.42;100985.39;1702393;83;21781;-72
2022/05/08 03:38:10;;;;;;;6.58;2.40;;;;;;;10.59;42.53;100988.03;1726106;81;21308;-72
2022/05/08 03:40:38;;;;;;;6.65;2.30;;;;;;;10.62;42.57;100988.33;1722994;82;20970;-73
2022/05/08 03:43:06;;;;;;;5.10;2.20;;;;;;;10.63;42.66;100990.02;1733694;80;21068;-74
2022/05/08 03:45:33;;;;;;;7.12;2.75;;;;;;;10.66;42.65;100994.59;1727734;83;21031;-72
2022/05/08 03:48:04;;;;;;;6.20;2.30;;;;;;;10.67;42.56;100997.59;1745511;82;21843;-72
2022/05/08 03:50:31;;;;;;;5.85;1.98;;;;;;;10.72;42.74;100994.66;1724718;82;20976;-70
2022/05/08 03:53:01;;;;;;;6.03;2.20;;;;;;;10.80;42.96;100993.61;1739008;81;20974;-71
2022/05/08 03:55:28;;;;;;;4.87;2.40;;;;;;;10.88;42.66;101000.05;1735006;82;21397;-71
2022/05/08 03:57:56;;;;;;;5.33;2.50;;;;;;;10.95;42.60;100996.50;1754947;81;21027;-70
2022/05/08 04:00:24;;;;;;;4.67;2.35;;;;;;;11.02;42.47;100988.52;1766819;79;21952;-70
2022/05/08 04:02:51;;;;;;;5.40;2.30;;;;;;;11.10;42.10;100984.00;1816276;78;21139;-71
2022/05/08 04:05:19;;;;;;;7.17;2.50;;;;;;;11.17;42.13;100982.59;1824255;77;20953;-70
2022/05/08 04:07:48;;;;;;;7.60;2.65;;;;;;;11.25;42.24;100979.39;1808296;78;21386;-71
2022/05/08 04:10:15;;;;;;;6.22;2.22;;;;;;;11.32;42.25;100980.64;1782083;80;21050;-71
2022/05/08 04:12:42;;;;;;;6.62;2.42;;;;;;;11.40;42.29;100984.91;1793408;78;21935;-71
2022/05/08 04:17:39;;;;;;;4.80;2.20;;;;;;;11.55;41.90;100987.73;1695212;83;21438;-71
2022/05/08 04:20:08;;;;;;;7.42;2.70;;;;;;;11.63;41.39;100977.91;1718011;81;20999;-72
2022/05/08 04:25:21;;;;;;;5.20;2.83;;;;;;;11.82;41.62;100988.00;1731198;81;21850;-71
2022/05/08 04:27:48;;;;;;;8.08;2.65;;;;;;;11.91;41.63;100980.22;1755138;80;20960;-71
2022/05/08 04:30:15;;;;;;;5.45;2.42;;;;;;;12.02;41.83;100984.22;1721570;82;21433;-73
2022/05/08 04:32:43;;;;;;;5.45;2.30;;;;;;;12.14;41.50;100981.11;1757181;79;21015;-71
2022/05/08 04:35:10;;;;;;;6.70;2.62;;;;;;;12.23;41.25;100981.73;1741837;81;20951;-71
2022/05/08 04:37:38;;;;;;;5.75;2.62;;;;;;;12.28;41.01;100978.27;1744003;81;21937;-71
2022/05/08 04:40:07;;;;;;;7.08;2.58;;;;;;;12.35;41.13;100983.07;1764687;81;21018;-71
2022/05/08 04:42:34;;;;;;;7.65;3.35;;;;;;;12.41;41.10;100986.09;1743115;81;21015;-71
2022/05/08 04:45:01;;;;;;;5.08;2.83;;;;;;;12.48;41.28;100985.15;1765955;79;20975;-71
2022/05/08 04:47:29;;;;;;;6.47;2.50;;;;;;;12.57;41.20;100985.77;1764190;79;21081;-71
2022/05/08 04:49:56;;;;;;;7.58;2.75;;;;;;;12.67;41.16;100988.53;1765748;80;21839;-71
2022/05/08 04:52:23;;;;;;;7.42;2.58;;;;;;;12.77;41.14;100985.52;1757212;79;21077;-71
2022/05/08 04:54:51;;;;;;;5.80;2.65;;;;;;;12.87;41.19;100986.48;1767682;79;21040;-71
2022/05/08 04:57:18;;;;;;;6.35;2.50;;;;;;;12.98;40.96;100989.12;1709865;82;20978;-71
2022/05/08 04:59:47;;;;;;;4.17;2.40;;;;;;;13.07;40.71;100992.36;1732472;81;21015;-71
2022/05/08 05:02:14;;;;;;;7.90;2.30;;;;;;;13.18;40.63;100991.02;1781575;78;21942;-71
2022/05/08 05:04:41;;;;;;;8.88;2.42;;;;;;;13.29;40.40;100995.48;1786174;78;21013;-71
2022/05/08 05:07:09;;;;;;;7.22;2.42;;;;;;;13.40;40.30;100994.61;1789048;78;20979;-72
2022/05/08 05:09:36;;;;;;;7.90;2.40;;;;;;;13.51;40.47;100996.38;1783338;80;21542;-72
2022/05/08 05:12:06;;;;;;;7.97;2.22;;;;;;;13.59;39.96;100989.48;1765828;80;21018;-72
2022/05/08 05:14:33;;;;;;;4.28;2.10;;;;;;;13.67;39.95;100993.68;1750076;81;21816;-72
2022/05/08 05:17:00;;;;;;;9.60;2.30;;;;;;;13.75;39.91;100991.73;1793040;78;21371;-73
2022/05/08 05:19:28;;;;;;;9.15;2.70;;;;;;;13.85;39.79;101001.09;1770904;79;20987;-71
2022/05/08 05:21:55;;;;;;;9.80;2.98;;;;;;;13.91;39.77;101001.44;1781146;80;21520;-71
2022/05/08 05:24:22;;;;;;;7.80;2.40;;;;;;;13.98;39.67;101005.73;1791962;78;20951;-74
2022/05/08 05:26:52;;;;;;;4.83;2.33;;;;;;;14.03;39.73;101001.73;1793899;79;21882;-71
2022/05/08 05:29:19;;;;;;;9.00;2.60;;;;;;;14.11;40.12;101006.89;1792991;78;20966;-71
2022/05/08 05:31:46;;;;;;;7.37;2.50;;;;;;;14.18;40.11;101005.38;1787233;78;21404;-72
2022/05/08 05:34:13;;;;;;;6.47;2.50;;;;;;;14.24;39.84;101004.88;1749124;80;21553;-71
2022/05/08 05:36:42;;;;;;;10.13;2.75;;;;;;;14.29;40.15;101014.16;1745557;81;21415;-72
2022/05/08 05:39:10;;;;;;;4.08;2.50;;;;;;;14.33;40.11;101014.23;1733938;81;21854;-71
2022/05/08 05:41:37;;;;;;;8.15;2.72;;;;;;;14.38;40.01;101009.00;1753081;81;20984;-71
2022/05/08 05:44:05;;;;;;;6.37;2.60;;;;;;;14.44;39.95;101020.45;1751585;81;21133;-72
2022/05/08 05:49:19;;;;;;;7.10;2.60;;;;;;;14.60;40.25;101019.54;1755925;80;20962;-77
2022/05/08 05:51:47;;;;;;;5.80;2.33;;;;;;;14.72;40.13;101013.64;1730433;81;21844;-71
2022/05/08 05:54:14;;;;;;;7.30;2.52;;;;;;;14.84;40.12;101016.06;1728461;80;21133;-78
2022/05/08 05:56:42;;;;;;;8.68;2.62;;;;;;;14.96;39.86;101018.62;1743150;80;21034;-80
2022/05/08 05:59:10;;;;;;;5.25;2.70;;;;;;;15.06;39.58;101013.73;1750581;81;20972;-73
2022/05/08 06:01:38;;;;;;;4.80;2.58;;;;;;;15.16;39.92;101008.43;1754976;80;21073;-71
2022/05/08 06:04:06;;;;;;;9.10;2.83;;;;;;;15.28;39.80;101011.33;1754628;80;21898;-74
2022/05/08 06:06:34;;;;;;;8.90;2.90;;;;;;;15.43;39.47;101008.61;1752316;80;21019;-75
2022/05/08 06:09:02;;;;;;;6.30;2.40;;;;;;;15.57;39.79;101011.87;1745523;81;21052;-73
2022/05/08 06:11:31;;;;;;;8.85;2.47;;;;;;;15.71;39.38;101007.48;1736029;81;20948;-75
2022/05/08 06:13:58;;;;;;;5.67;2.90;;;;;;;15.81;39.16;101006.99;1754561;80;20936;-74
2022/05/08 06:16:27;;;;;;;12.58;2.72;;;;;;;15.90;39.23;101003.98;1743164;80;21848;-73
2022/05/08 06:18:54;;;;;;;6.95;2.72;;;;;;;16.02;38.79;101005.54;1758092;80;21025;-73
2022/05/08 06:21:39;;;;;;;7.10;2.70;;;;;;;16.12;39.10;100998.87;1755138;80;21043;-74
2022/05/08 06:24:12;;;;;;;4.75;2.60;;;;;;;16.23;38.82;101003.55;1750627;81;21059;-73
2022/05/08 06:26:39;;;;;;;9.03;2.85;;;;;;;16.38;38.89;100995.08;1744235;80;21035;-73
2022/05/08 06:29:07;;;;;;;5.80;2.72;;;;;;;16.53;38.82;100993.65;1735414;81;21577;-72
2022/05/08 06:31:35;;;;;;;6.50;3.00;;;;;;;16.70;38.29;100995.59;1746356;81;21486;-72
2022/05/08 06:34:03;;;;;;;6.65;2.80;;;;;;;16.81;38.42;100991.89;1775433;78;21126;-72
2022/05/08 06:36:32;;;;;;;6.72;2.55;;;;;;;16.94;38.46;100991.55;1811567;77;21023;-73
2022/05/08 06:38:59;;;;;;;6.40;2.90;;;;;;;17.07;38.00;100992.03;1823197;78;21034;-71
2022/05/08 06:41:28;;;;;;;5.65;2.70;;;;;;;17.20;37.72;100987.20;1794334;78;21908;-73
2022/05/08 06:43:55;;;;;;;6.20;2.15;;;;;;;17.30;37.19;100984.47;1726968;80;21102;-72
2022/05/08 06:46:22;;;;;;;8.23;2.30;;;;;;;17.43;37.52;100983.59;1737956;81;21337;-73
2022/05/08 06:48:49;;;;;;;6.92;2.00;;;;;;;17.60;36.59;100980.10;1733668;82;21063;-71
2022/05/08 06:51:16;;;;;;;6.33;2.47;;;;;;;17.76;36.28;100981.25;1753756;81;21073;-71
2022/05/08 06:53:46;;;;;;;4.80;2.30;;;;;;;17.92;35.98;100978.23;1725889;83;21915;-72
2022/05/08 06:56:15;;;;;;;6.22;2.47;;;;;;;18.07;35.80;100979.87;1744594;81;21256;-72
2022/05/08 07:01:42;;;;;;;8.33;2.50;;;;;;;18.31;35.90;100974.67;1702681;82;21493;-70
2022/05/08 07:04:11;;;;;;;7.10;2.30;;;;;;;18.47;34.97;100975.29;1736893;81;21062;-71
2022/05/08 07:06:40;;;;;;;5.25;2.37;;;;;;;18.55;34.79;100971.33;1734722;82;21804;-71
2022/05/08 07:09:07;;;;;;;5.87;2.37;;;;;;;18.62;34.03;100970.67;1758134;81;21536;-73
2022/05/08 07:11:35;;;;;;;4.90;2.12;;;;;;;18.68;34.69;100976.27;1722581;81;21054;-70
2022/05/08 07:14:02;;;;;;;5.95;1.95;;;;;;;18.80;34.31;100972.30;1710522;82;21275;-71
2022/05/08 07:16:30;;;;;;;5.12;1.90;;;;;;;18.94;33.67;100974.05;1705352;84;21446;-72
2022/05/08 07:18:57;;;;;;;6.97;1.98;;;;;;;19.01;33.94;100970.56;1705171;82;21987;-72
2022/05/08 07:21:27;;;;;;;3.75;1.75;;;;;;;19.12;33.82;100963.58;1688459;83;40094;-72
2022/05/08 07:23:55;;;;;;;3.47;1.50;;;;;;;19.30;33.76;100966.61;1712422;82;21023;-71
2022/05/08 07:26:22;;;;;;;3.45;1.55;;;;;;;19.47;31.29;100971.50;1707106;82;21083;-71
2022/05/08 07:28:50;;;;;;;2.08;1.52;;;;;;;19.59;30.37;100970.20;1751448;81;21054;-73
2022/05/08 07:31:17;;;;;;;5.85;1.55;;;;;;;19.68;30.77;100970.55;1727936;81;21858;-71
2022/05/08 07:33:44;;;;;;;6.90;1.90;;;;;;;19.81;30.61;100965.55;1751485;80;21135;-72
2022/05/08 07:36:12;;;;;;;4.53;1.60;;;;;;;19.92;31.28;100976.44;1754062;81;21054;-73
2022/05/08 07:38:44;;;;;;;3.58;1.45;;;;;;;20.01;30.18;100964.20;1743606;81;21042;-72
2022/05/08 07:41:14;;;;;;;3.15;1.20;;;;;;;20.11;30.70;100963.19;1756505;80;21052;-72
2022/05/08 07:43:45;;;;;;;3.60;1.40;;;;;;;20.22;30.49;100972.22;1747307;81;21776;-71
2022/05/08 07:46:14;;;;;;;5.37;1.47;;;;;;;20.24;29.32;100969.69;1749922;81;21016;-71
2022/05/08 07:48:41;;;;;;;5.95;1.95;;;;;;;20.22;29.40;100972.22;1786948;80;21544;-71
2022/05/08 07:51:09;;;;;;;4.47;1.62;;;;;;;20.21;29.32;100967.87;1783519;80;20947;-70
2022/05/08 07:53:37;;;;;;;5.62;1.47;;;;;;;20.19;29.36;100961.34;1790944;80;21462;-71
2022/05/08 07:56:07;;;;;;;4.12;1.35;;;;;;;20.22;28.90;100966.86;1756943;80;21973;-71
2022/05/08 07:58:34;;;;;;;5.35;1.57;;;;;;;20.26;29.32;100960.97;1745809;81;20920;-70
2022/05/08 08:01:02;;;;;;;4.37;1.80;;;;;;;20.36;29.99;100961.28;1731481;81;21407;-70
2022/05/08 08:03:31;;;;;;;4.45;1.75;;;;;;;20.49;29.22;100958.45;1737473;81;21014;-71
2022/05/08 08:05:58;;;;;;;6.78;1.98;;;;;;;20.62;28.26;100953.03;1708898;84;21082;-71
2022/05/08 08:08:26;;;;;;;4.17;1.55;;;;;;;20.72;29.23;100960.38;1743379;81;21850;-70
2022/05/08 08:11:03;;;;;;;5.65;1.67;;;;;;;20.83;28.60;100962.69;1753011;80;21000;-72
2022/05/08 08:13:26;;;;;;;7.87;1.90;;;;;;;20.87;28.24;100953.28;1735612;81;21477;-72
2022/05/08 08:15:54;;;;;;;4.80;1.70;;;;;;;20.89;26.80;100960.66;1737670;82;21075;-72
2022/05/08 08:18:22;;;;;;;4.75;1.70;;;;;;;20.87;26.18;100954.63;1738268;81;21532;-71
2022/05/08 08:20:50;;;;;;;5.90;1.98;;;;;;;20.88;27.26;100954.95;1736062;82;21741;-71
2022/05/08 08:23:17;;;;;;;2.55;1.80;;;;;;;20.99;27.45;100959.09;1722240;82;21023;-71
2022/05/08 08:25:46;;;;;;;5.25;1.90;;;;;;;21.13;27.93;100951.63;1735245;81;21397;-75
2022/05/08 08:28:14;;;;;;;4.95;1.75;;;;;;;21.25;26.23;100954.77;1738053;81;21031;-73
2022/05/08 08:30:42;;;;;;;6.10;1.60;;;;;;;21.34;26.89;100948.37;1734487;81;21023;-74
2022/05/08 08:33:09;;;;;;;5.17;1.80;;;;;;;21.46;26.25;100950.96;1743022;80;21850;-73
2022/05/08 08:35:39;;;;;;;3.75;1.60;;;;;;;21.50;26.47;100954.12;1773921;80;21078;-72
2022/05/08 08:38:07;;;;;;;3.35;1.87;;;;;;;21.61;27.37;100948.31;1758340;80;21065;-73
2022/05/08 08:40:40;;;;;;;3.02;1.80;;;;;;;21.64;26.91;100944.78;1756805;80;22271;-70
2022/05/08 08:43:11;;;;;;;7.95;2.10;;;;;;;21.67;26.44;100945.76;1758860;81;21055;-70
2022/05/08 08:48:32;;;;;;;5.42;1.72;;;;;;;21.75;26.32;100940.83;1706642;81;21088;-76
2022/05/08 08:51:01;;;;;;;4.40;2.00;;;;;;;21.81;26.55;100950.01;1756104;80;21030;-77
2022/05/08 08:53:28;;;;;;;5.08;1.70;;;;;;;21.78;26.33;100946.34;1736317;81;21157;-77
2022/05/08 08:55:59;;;;;;;6.75;1.90;;;;;;;21.71;25.51;100934.98;1760101;80;21568;-75
2022/05/08 08:58:26;;;;;;;4.25;2.10;;;;;;;21.82;26.65;100945.81;1792147;78;21957;-74
2022/05/08 09:00:54;;;;;;;5.70;2.00;;;;;;;21.94;26.32;100945.70;1791894;78;21026;-75
2022/05/08 09:03:27;;;;;;;3.70;2.05;;;;;;;22.00;27.05;100940.95;1755781;80;21070;-76
2022/05/08 09:05:58;;;;;;;4.40;2.10;;;;;;;22.17;26.42;100946.19;1753945;80;21539;-76
2022/05/08 09:08:32;;;;;;;3.37;1.70;;;;;;;22.31;25.96;100948.08;1738922;81;21587;-75
2022/05/08 09:10:59;;;;;;;4.30;1.80;;;;;;;22.34;25.47;100934.75;1756140;80;21943;-73
2022/05/08 09:13:28;;;;;;;3.72;1.72;;;;;;;22.39;26.34;100930.50;1738857;81;21019;-74
2022/05/08 09:16:04;;;;;;;2.45;1.77;;;;;;;22.52;25.58;100936.56;1760129;80;21571;-75
2022/05/08 09:18:46;;;;;;;4.97;1.60;;;;;;;22.60;26.15;100934.30;1737157;81;21081;-74
2022/05/08 09:24:11;;;;;;;5.17;1.72;;;;;;;22.85;25.54;100940.55;1734422;81;21955;-74
2022/05/08 09:26:41;;;;;;;5.60;1.98;;;;;;;22.79;24.81;100926.48;1759254;80;21007;-76
2022/05/08 09:29:08;;;;;;;5.20;1.55;;;;;;;22.70;24.81;100932.16;1737455;81;21111;-75
2022/05/08 09:31:41;;;;;;;5.28;2.00;;;;;;;22.66;24.56;100919.55;1710047;80;21090;-73
2022/05/08 09:34:08;;;;;;;7.40;1.70;;;;;;;22.57;25.20;100930.93;1724288;81;21030;-75
2022/05/08 09:36:36;;;;;;;6.35;1.95;;;;;;;22.58;24.21;100922.34;1754239;80;21011;-75
2022/05/08 09:39:05;;;;;;;6.17;2.00;;;;;;;22.61;24.66;100925.19;1732498;81;21822;-75
2022/05/08 09:41:39;;;;;;;6.85;1.80;;;;;;;22.71;24.47;100925.74;1730126;81;21057;-72
2022/05/08 09:44:15;;;;;;;4.97;1.50;;;;;;;22.81;24.69;100924.94;1730525;81;21543;-76
2022/05/08 09:46:45;;;;;;;3.60;1.87;;;;;;;22.96;24.76;100923.06;1746795;81;21023;-74
2022/05/08 09:49:21;;;;;;;5.00;1.90;;;;;;;23.22;25.37;100917.14;1735830;82;21911;-75
2022/05/08 09:51:49;;;;;;;2.70;1.70;;;;;;;23.46;24.99;100910.56;1755097;80;21529;-77
2022/05/08 09:54:20;;;;;;;3.98;1.80;;;;;;;23.64;24.00;100919.55;1735041;81;21075;-76
2022/05/08 09:56:49;;;;;;;5.90;1.98;;;;;;;23.71;23.92;100915.05;1737166;81;21052;-76
2022/05/08 09:59:16;;;;;;;3.70;1.90;;;;;;;23.76;22.76;100917.19;1755296;80;21069;-76
2022/05/08 10:01:43;;;;;;;6.25;1.80;;;;;;;23.73;23.47;100918.90;1788204;78;21905;-75
2022/05/08 10:04:10;;;;;;;3.85;1.80;;;;;;;23.73;23.58;100908.11;1787600;78;21058;-78
2022/05/08 10:06:38;;;;;;;6.33;1.77;;;;;;;23.81;24.73;100903.92;1786246;78;21103;-75
2022/05/08 10:14:39;;;;;;;7.55;1.70;;;;;;;24.11;23.57;100895.11;1739855;81;22566;-74
2022/05/08 10:17:06;;;;;;;6.37;1.92;;;;;;;24.18;23.55;100893.30;1745839;81;21074;-76
2022/05/08 10:19:43;;;;;;;6.20;1.62;;;;;;;24.26;24.03;100890.45;1736362;81;21541;-73
2022/05/08 10:22:12;;;;;;;8.23;1.87;;;;;;;24.36;23.23;100888.25;1741598;81;21024;-73
2022/05/08 10:24:54;;;;;;;8.23;2.10;;;;;;;24.41;22.30;100890.34;1739049;82;21015;-75
2022/05/08 10:27:31;;;;;;;5.53;1.60;;;;;;;24.35;24.08;100889.29;1734840;81;22446;-76
2022/05/08 10:30:06;;;;;;;10.18;2.47;;;;;;;24.53;24.09;100881.49;1737371;81;21035;-75
2022/05/08 10:32:47;;;;;;;5.12;1.87;;;;;;;24.75;22.57;100875.96;1739590;81;21152;-72
2022/05/08 10:35:25;;;;;;;5.15;1.70;;;;;;;24.84;23.16;100876.09;1738549;81;21064;-72
2022/05/08 10:38:06;;;;;;;5.08;1.60;;;;;;;24.98;24.20;100872.38;1734256;81;21510;-70
2022/05/08 10:40:35;;;;;;;3.12;1.70;;;;;;;25.14;23.70;100858.22;1720956;82;22059;-71
2022/05/08 10:43:18;;;;;;;3.65;2.00;;;;;;;25.32;24.14;100859.28;1738513;82;20987;-71
2022/05/08 10:45:46;;;;;;;;;;;;;;;25.44;22.64;100869.48;1728894;81;20998;-72
2022/05/08 10:48:19;;;;;;;7.15;1.87;;;;;;;25.50;21.59;100860.03;1731850;81;20164;-71
2022/05/08 10:50:55;;;;;;;5.92;1.70;;;;;;;25.39;22.64;100861.48;1762203;80;20980;-72
2022/05/08 10:53:32;;;;;;;4.55;2.30;;;;;;;25.31;21.62;100851.39;1745633;80;21886;-71
2022/05/08 10:56:06;;;;;;;6.03;1.80;;;;;;;25.10;22.19;100861.86;1735107;82;21047;-71
2022/05/08 10:58:34;;;;;;;2.45;1.75;;;;;;;24.85;22.42;100864.25;1696706;83;21032;-72
2022/05/08 11:01:04;;;;;;;8.60;1.75;;;;;;;24.78;22.41;100854.77;1713271;81;21067;-71
2022/05/08 11:03:36;;;;;;;12.47;2.00;;;;;;;24.72;22.29;100854.25;1726787;82;21011;-73
2022/05/08 11:06:05;;;;;;;7.78;2.00;;;;;;;24.60;22.76;100852.31;1725774;81;21817;-72
2022/05/08 11:08:35;;;;;;;6.40;1.87;;;;;;;24.63;22.77;100847.88;1742758;81;21054;-71
2022/05/08 11:11:09;;;;;;;10.23;2.00;;;;;;;24.68;23.13;100851.61;1735391;82;21394;-72
2022/05/08 11:13:48;;;;;;;5.92;1.75;;;;;;;24.70;22.50;100837.91;1736766;82;21043;-72
2022/05/08 11:16:33;;;;;;;5.22;1.80;;;;;;;24.60;22.98;100840.98;1734590;82;21002;-71
2022/05/08 11:19:01;;;;;;;5.70;1.90;;;;;;;24.47;22.51;100844.99;1728193;81;21876;-72
2022/05/08 11:21:29;;;;;;;7.22;2.00;;;;;;;24.41;22.63;100843.09;1748982;81;21011;-74
2022/05/08 11:23:56;;;;;;;6.00;1.80;;;;;;;24.40;22.11;100830.63;1741487;81;22085;-74
2022/05/08 11:26:35;;;;;;;6.45;1.72;;;;;;;24.52;23.01;100824.47;1746194;81;21000;-72
2022/05/08 11:29:06;;;;;;;5.78;1.80;;;;;;;24.71;22.73;100831.49;1738434;81;21507;-72
2022/05/08 11:31:35;;;;;;;8.68;1.85;;;;;;;24.66;22.05;100825.84;1738159;81;21853;-72
2022/05/08 11:36:50;;;;;;;4.33;1.60;;;;;;;24.28;23.47;100826.29;1762741;79;21047;-71
2022/05/08 11:39:19;;;;;;;4.42;1.82;;;;;;;24.29;23.97;100817.16;1760556;79;21029;-74
2022/05/08 11:41:49;;;;;;;3.12;1.72;;;;;;;24.48;23.50;100819.14;1766971;79;21066;-70
2022/05/08 11:44:21;;;;;;;4.35;1.47;;;;;;;24.52;22.89;100810.97;1775479;79;21791;-69
2022/05/08 11:46:55;;;;;;;4.00;1.65;;;;;;;24.34;22.42;100817.43;1768246;79;21050;-70
2022/05/08 11:49:32;;;;;;;5.17;1.65;;;;;;;24.19;23.09;100808.08;1765609;79;20956;-69
2022/05/08 11:52:01;;;;;;;7.33;1.90;;;;;;;24.29;23.62;100796.91;1775962;79;21004;-73
2022/05/08 11:54:35;;;;;;;2.15;1.80;;;;;;;24.48;24.26;100797.53;1761085;79;21502;-74
2022/05/08 11:57:21;;;;;;;6.80;1.70;;;;;;;24.59;23.01;100790.70;1740986;79;21928;-73
2022/05/08 11:59:51;;;;;;;3.20;1.60;;;;;;;24.60;23.50;100799.64;1791614;78;21014;-74
2022/05/08 12:02:19;;;;;;;3.77;1.50;;;;;;;24.78;22.86;100784.52;1798783;78;21639;-74
2022/05/08 12:04:54;;;;;;;4.30;1.70;;;;;;;24.97;22.50;100784.24;1771740;78;21035;-70
2022/05/08 12:07:23;;;;;;;2.95;1.80;;;;;;;25.24;22.49;100771.61;1754070;79;21000;-72